createdAt,value
2017-06-21T00:00:31.058Z,1005.72
2017-06-21T00:01:27.262Z,1005.77
2017-06-21T00:02:23.502Z,1005.76
2017-06-21T00:03:19.735Z,1005.74
2017-06-21T00:04:15.982Z,1005.73
2017-06-21T00:05:12.211Z,1005.76
2017-06-21T00:06:08.447Z,1005.79
2017-06-21T00:07:04.683Z,1005.73
2017-06-21T00:08:00.915Z,1005.72
2017-06-21T00:08:57.146Z,1005.69
2017-06-21T00:09:53.404Z,1005.76
2017-06-21T00:10:49.634Z,1005.77
2017-06-21T00:11:45.873Z,1005.77
2017-06-21T00:12:42.098Z,1005.81
2017-06-21T00:13:38.341Z,1005.82
2017-06-21T00:14:34.583Z,1005.78
2017-06-21T00:15:30.831Z,1005.81
2017-06-21T00:16:27.071Z,1005.78
2017-06-21T00:17:23.314Z,1005.78
2017-06-21T00:18:19.554Z,1005.80
2017-06-21T00:19:15.799Z,1005.83
2017-06-21T00:20:12.074Z,1005.79
2017-06-21T00:21:08.323Z,1005.77
2017-06-21T00:22:04.575Z,1005.77
2017-06-21T00:23:00.815Z,1005.72
2017-06-21T00:23:57.070Z,1005.74
2017-06-21T00:24:53.314Z,1005.78
2017-06-21T00:25:49.578Z,1005.70
2017-06-21T00:26:45.816Z,1005.73
2017-06-21T00:27:42.066Z,1005.69
2017-06-21T00:28:38.320Z,1005.76
2017-06-21T00:29:34.570Z,1005.72
2017-06-21T00:30:30.815Z,1005.80
2017-06-21T00:31:27.063Z,1005.77
2017-06-21T00:32:23.310Z,1005.83
2017-06-21T00:33:19.551Z,1005.79
2017-06-21T00:34:15.820Z,1005.88
2017-06-21T00:35:12.067Z,1005.93
2017-06-21T00:36:08.333Z,1005.88
2017-06-21T00:37:04.575Z,1005.83
2017-06-21T00:38:00.811Z,1005.80
2017-06-21T00:38:57.042Z,1005.78
2017-06-21T00:39:53.304Z,1005.87
2017-06-21T00:40:49.535Z,1005.88
2017-06-21T00:41:45.787Z,1005.91
2017-06-21T00:42:42.034Z,1005.83
2017-06-21T00:43:38.282Z,1005.92
2017-06-21T00:44:34.526Z,1005.87
2017-06-21T00:45:30.771Z,1005.85
2017-06-21T00:46:27.014Z,1005.78
2017-06-21T00:47:23.271Z,1005.82
2017-06-21T00:48:19.510Z,1005.78
2017-06-21T00:49:15.767Z,1005.87
2017-06-21T00:50:12.012Z,1005.76
2017-06-21T00:51:08.266Z,1005.83
2017-06-21T00:52:04.539Z,1005.81
2017-06-21T00:53:00.800Z,1005.79
2017-06-21T00:53:57.047Z,1005.85
2017-06-21T00:54:53.278Z,1005.78
2017-06-21T00:55:49.530Z,1005.78
2017-06-21T00:56:45.771Z,1005.79
2017-06-21T00:57:42.023Z,1005.83
2017-06-21T00:58:38.254Z,1005.82
2017-06-21T00:59:34.509Z,1005.86
2017-06-21T01:00:30.755Z,1005.85
2017-06-21T01:01:27.002Z,1005.86
2017-06-21T01:02:23.246Z,1005.89
2017-06-21T01:03:19.502Z,1005.90
2017-06-21T01:04:15.743Z,1005.84
2017-06-21T01:05:11.982Z,1005.86
2017-06-21T01:06:08.226Z,1005.93
2017-06-21T01:07:04.471Z,1005.85
2017-06-21T01:08:00.742Z,1005.88
2017-06-21T01:08:56.998Z,1005.87
2017-06-21T01:09:53.234Z,1005.82
2017-06-21T01:10:49.479Z,1005.77
2017-06-21T01:11:45.727Z,1005.85
2017-06-21T01:12:42.030Z,1005.89
2017-06-21T01:13:38.278Z,1005.91
2017-06-21T01:14:34.524Z,1005.85
2017-06-21T01:15:30.771Z,1005.86
2017-06-21T01:16:27.007Z,1005.87
2017-06-21T01:17:23.250Z,1005.96
2017-06-21T01:18:19.511Z,1005.92
2017-06-21T01:19:15.739Z,1005.95
2017-06-21T01:20:11.978Z,1005.91
2017-06-21T01:21:08.215Z,1005.88
2017-06-21T01:22:04.454Z,1005.96
2017-06-21T01:23:00.703Z,1005.97
2017-06-21T01:23:56.959Z,1005.95
2017-06-21T01:24:53.214Z,1005.90
2017-06-21T01:25:49.450Z,1005.88
2017-06-21T01:26:45.696Z,1005.85
2017-06-21T01:27:41.934Z,1005.92
2017-06-21T01:28:38.190Z,1005.83
2017-06-21T01:29:34.431Z,1005.85
2017-06-21T01:30:30.670Z,1005.93
2017-06-21T01:31:26.898Z,1005.87
2017-06-21T01:32:23.138Z,1005.92
2017-06-21T01:33:19.384Z,1005.89
2017-06-21T01:34:15.667Z,1005.95
2017-06-21T01:35:11.903Z,1005.96
2017-06-21T01:36:08.144Z,1005.94
2017-06-21T01:37:04.390Z,1005.89
2017-06-21T01:38:00.623Z,1005.94
2017-06-21T01:38:56.866Z,1005.91
2017-06-21T01:39:53.142Z,1005.90
2017-06-21T01:40:49.383Z,1005.95
2017-06-21T01:41:45.622Z,1005.88
2017-06-21T01:42:41.872Z,1005.86
2017-06-21T01:43:38.110Z,1005.84
2017-06-21T01:44:34.350Z,1005.91
2017-06-21T01:45:30.602Z,1005.84
2017-06-21T01:46:26.849Z,1005.83
2017-06-21T01:47:23.090Z,1005.88
2017-06-21T01:48:19.326Z,1005.89
2017-06-21T01:49:15.567Z,1005.87
2017-06-21T01:50:11.834Z,1005.90
2017-06-21T01:51:08.084Z,1005.86
2017-06-21T01:52:04.323Z,1005.83
2017-06-21T01:53:00.563Z,1005.95
2017-06-21T01:53:56.802Z,1005.95
2017-06-21T01:54:53.035Z,1005.99
2017-06-21T01:55:49.299Z,1005.94
2017-06-21T01:56:45.542Z,1005.88
2017-06-21T01:57:41.815Z,1005.88
2017-06-21T01:58:38.058Z,1005.92
2017-06-21T01:59:34.312Z,1005.86
2017-06-21T02:00:30.590Z,1005.85
2017-06-21T02:01:26.842Z,1005.83
2017-06-21T02:02:23.103Z,1005.82
2017-06-21T02:03:19.350Z,1005.81
2017-06-21T02:04:15.616Z,1005.83
2017-06-21T02:05:11.868Z,1005.88
2017-06-21T02:06:08.152Z,1005.81
2017-06-21T02:07:04.403Z,1005.82
2017-06-21T02:08:00.675Z,1005.87
2017-06-21T02:08:56.946Z,1005.87
2017-06-21T02:09:53.192Z,1005.78
2017-06-21T02:10:49.443Z,1005.85
2017-06-21T02:11:45.694Z,1005.80
2017-06-21T02:12:41.950Z,1005.82
2017-06-21T02:13:38.223Z,1005.78
2017-06-21T02:14:34.478Z,1005.87
2017-06-21T02:15:30.726Z,1005.79
2017-06-21T02:16:26.991Z,1005.84
2017-06-21T02:17:23.277Z,1005.78
2017-06-21T02:18:19.531Z,1005.80
2017-06-21T02:19:15.782Z,1005.81
2017-06-21T02:20:12.035Z,1005.80
2017-06-21T02:21:08.295Z,1005.83
2017-06-21T02:22:04.558Z,1005.78
2017-06-21T02:23:00.811Z,1005.79
2017-06-21T02:23:57.062Z,1005.77
2017-06-21T02:24:53.303Z,1005.84
2017-06-21T02:25:49.578Z,1005.77
2017-06-21T02:26:45.827Z,1005.84
2017-06-21T02:27:42.091Z,1005.83
2017-06-21T02:28:38.342Z,1005.75
2017-06-21T02:29:34.621Z,1005.70
2017-06-21T02:30:30.878Z,1005.74
2017-06-21T02:31:27.126Z,1005.75
2017-06-21T02:32:23.401Z,1005.73
2017-06-21T02:33:19.667Z,1005.79
2017-06-21T02:34:15.939Z,1005.77
2017-06-21T02:35:12.187Z,1005.75
2017-06-21T02:36:08.434Z,1005.84
2017-06-21T02:37:04.691Z,1005.83
2017-06-21T02:38:00.926Z,1005.88
2017-06-21T02:38:57.198Z,1005.83
2017-06-21T02:39:53.443Z,1005.89
2017-06-21T02:40:49.691Z,1005.81
2017-06-21T02:41:45.945Z,1005.83
2017-06-21T02:42:42.182Z,1005.84
2017-06-21T02:43:38.430Z,1005.88
2017-06-21T02:44:34.691Z,1005.83
2017-06-21T02:45:30.962Z,1005.82
2017-06-21T02:46:27.226Z,1005.89
2017-06-21T02:47:23.496Z,1005.86
2017-06-21T02:48:19.790Z,1005.87
2017-06-21T02:49:16.094Z,1005.86
2017-06-21T02:50:12.363Z,1005.88
2017-06-21T02:51:08.619Z,1005.85
2017-06-21T02:52:04.867Z,1005.92
2017-06-21T02:53:01.121Z,1005.89
2017-06-21T02:53:57.387Z,1005.88
2017-06-21T02:54:53.675Z,1005.84
2017-06-21T02:55:49.931Z,1005.86
2017-06-21T02:56:46.191Z,1005.86
2017-06-21T02:57:42.447Z,1005.86
2017-06-21T02:58:38.702Z,1005.89
2017-06-21T02:59:34.961Z,1005.94
2017-06-21T03:00:31.218Z,1005.87
2017-06-21T03:01:27.461Z,1005.89
2017-06-21T03:02:23.703Z,1005.86
2017-06-21T03:03:19.971Z,1005.85
2017-06-21T03:04:16.215Z,1005.95
2017-06-21T03:05:12.478Z,1005.86
2017-06-21T03:06:08.754Z,1005.92
2017-06-21T03:07:04.995Z,1005.91
2017-06-21T03:08:01.251Z,1005.91
2017-06-21T03:08:57.494Z,1005.89
2017-06-21T03:09:53.731Z,1005.88
2017-06-21T03:10:49.986Z,1005.94
2017-06-21T03:11:46.231Z,1005.89
2017-06-21T03:12:42.487Z,1005.90
2017-06-21T03:13:38.727Z,1005.84
2017-06-21T03:14:34.982Z,1005.87
2017-06-21T03:15:31.233Z,1005.87
2017-06-21T03:16:27.502Z,1005.88
2017-06-21T03:17:23.748Z,1005.85
2017-06-21T03:18:19.999Z,1005.84
2017-06-21T03:19:16.248Z,1005.92
2017-06-21T03:20:12.499Z,1005.82
2017-06-21T03:21:08.777Z,1005.88
2017-06-21T03:22:05.035Z,1005.90
2017-06-21T03:23:01.291Z,1005.93
2017-06-21T03:23:57.538Z,1005.94
2017-06-21T03:24:53.783Z,1005.91
2017-06-21T03:25:50.038Z,1005.93
2017-06-21T03:26:46.302Z,1005.93
2017-06-21T03:27:42.571Z,1005.96
2017-06-21T03:28:38.822Z,1005.94
2017-06-21T03:29:35.062Z,1006.00
2017-06-21T03:30:31.311Z,1005.86
2017-06-21T03:31:27.591Z,1005.96
2017-06-21T03:32:23.839Z,1005.93
2017-06-21T03:33:20.098Z,1005.92
2017-06-21T03:34:16.344Z,1006.06
2017-06-21T03:35:12.590Z,1005.97
2017-06-21T03:36:08.943Z,1006.08
2017-06-21T03:37:05.229Z,1006.05
2017-06-21T03:38:01.486Z,1006.02
2017-06-21T03:38:57.726Z,1006.05
2017-06-21T03:39:53.974Z,1006.05
2017-06-21T03:40:50.215Z,1005.97
2017-06-21T03:41:46.463Z,1006.07
2017-06-21T03:42:42.718Z,1005.98
2017-06-21T03:43:38.958Z,1006.01
2017-06-21T03:44:35.218Z,1006.07
2017-06-21T03:45:31.458Z,1005.99
2017-06-21T03:46:27.713Z,1006.07
2017-06-21T03:47:23.994Z,1006.01
2017-06-21T03:48:20.235Z,1006.04
2017-06-21T03:49:16.498Z,1006.10
2017-06-21T03:50:12.750Z,1006.13
2017-06-21T03:51:09.006Z,1006.09
2017-06-21T03:52:05.259Z,1006.08
2017-06-21T03:53:01.524Z,1006.08
2017-06-21T03:53:57.776Z,1006.11
2017-06-21T03:54:54.028Z,1006.14
2017-06-21T03:55:50.284Z,1006.04
2017-06-21T03:56:46.538Z,1006.11
2017-06-21T03:57:42.790Z,1006.08
2017-06-21T03:58:39.063Z,1006.06
2017-06-21T03:59:35.307Z,1006.04
2017-06-21T04:00:31.554Z,1005.99
2017-06-21T04:01:27.799Z,1006.13
2017-06-21T04:02:24.098Z,1006.09
2017-06-21T04:03:20.366Z,1006.10
2017-06-21T04:04:16.610Z,1006.18
2017-06-21T04:05:12.859Z,1006.17
2017-06-21T04:06:09.104Z,1006.23
2017-06-21T04:07:05.359Z,1006.14
2017-06-21T04:08:01.603Z,1006.17
2017-06-21T04:08:57.886Z,1006.15
2017-06-21T04:09:54.146Z,1006.16
2017-06-21T04:10:50.399Z,1006.22
2017-06-21T04:11:46.655Z,1006.18
2017-06-21T04:12:42.898Z,1006.24
2017-06-21T04:13:39.155Z,1006.17
2017-06-21T04:14:35.431Z,1006.17
2017-06-21T04:15:31.691Z,1006.32
2017-06-21T04:16:27.947Z,1006.20
2017-06-21T04:17:24.190Z,1006.28
2017-06-21T04:18:20.446Z,1006.30
2017-06-21T04:19:16.706Z,1006.28
2017-06-21T04:20:12.967Z,1006.31
2017-06-21T04:21:09.230Z,1006.27
2017-06-21T04:22:05.468Z,1006.34
2017-06-21T04:23:01.703Z,1006.33
2017-06-21T04:23:57.959Z,1006.41
2017-06-21T04:24:54.239Z,1006.40
2017-06-21T04:25:50.534Z,1006.33
2017-06-21T04:26:46.822Z,1006.34
2017-06-21T04:27:43.118Z,1006.37
2017-06-21T04:28:39.423Z,1006.40
2017-06-21T04:29:35.706Z,1006.33
2017-06-21T04:30:31.966Z,1006.36
2017-06-21T04:31:28.215Z,1006.39
2017-06-21T04:32:24.514Z,1006.37
2017-06-21T04:33:20.755Z,1006.42
2017-06-21T04:34:17.003Z,1006.44
2017-06-21T04:35:13.266Z,1006.44
2017-06-21T04:36:09.518Z,1006.35
2017-06-21T04:37:05.759Z,1006.36
2017-06-21T04:38:02.002Z,1006.32
2017-06-21T04:38:58.259Z,1006.41
2017-06-21T04:39:54.510Z,1006.35
2017-06-21T04:40:50.779Z,1006.35
2017-06-21T04:41:47.026Z,1006.34
2017-06-21T04:42:43.278Z,1006.34
2017-06-21T04:43:39.530Z,1006.38
2017-06-21T04:44:35.781Z,1006.37
2017-06-21T04:45:32.026Z,1006.37
2017-06-21T04:46:28.295Z,1006.37
2017-06-21T04:47:24.537Z,1006.35
2017-06-21T04:48:20.767Z,1006.36
2017-06-21T04:49:17.006Z,1006.32
2017-06-21T04:50:13.419Z,1006.34
2017-06-21T04:51:09.806Z,1006.34
2017-06-21T04:52:06.060Z,1006.39
2017-06-21T04:53:02.302Z,1006.37
2017-06-21T04:53:58.548Z,1006.37
2017-06-21T04:54:54.799Z,1006.43
2017-06-21T04:55:51.040Z,1006.36
2017-06-21T04:56:47.325Z,1006.37
2017-06-21T04:57:43.558Z,1006.35
2017-06-21T04:58:39.794Z,1006.31
2017-06-21T04:59:36.244Z,1006.30
2017-06-21T05:00:32.481Z,1006.32
2017-06-21T05:01:28.723Z,1006.23
2017-06-21T05:02:25.111Z,1006.23
2017-06-21T05:03:21.475Z,1006.30
2017-06-21T05:04:17.707Z,1006.31
2017-06-21T05:05:13.951Z,1006.27
2017-06-21T05:06:10.218Z,1006.17
2017-06-21T05:07:06.647Z,1006.29
2017-06-21T05:08:02.910Z,1006.29
2017-06-21T05:08:59.159Z,1006.24
2017-06-21T05:09:55.398Z,1006.34
2017-06-21T05:10:51.646Z,1006.25
2017-06-21T05:11:47.938Z,1006.24
2017-06-21T05:12:44.315Z,1006.24
2017-06-21T05:13:40.571Z,1006.22
2017-06-21T05:14:36.823Z,1006.20
2017-06-21T05:15:33.073Z,1006.28
2017-06-21T05:16:29.311Z,1006.19
2017-06-21T05:17:25.571Z,1006.24
2017-06-21T05:18:21.819Z,1006.20
2017-06-21T05:19:18.058Z,1006.20
2017-06-21T05:20:14.298Z,1006.13
2017-06-21T05:21:10.543Z,1006.21
2017-06-21T05:22:06.791Z,1006.22
2017-06-21T05:23:03.051Z,1006.28
2017-06-21T05:23:59.302Z,1006.14
2017-06-21T05:24:55.547Z,1006.24
2017-06-21T05:25:51.814Z,1006.20
2017-06-21T05:26:48.071Z,1006.19
2017-06-21T05:27:44.307Z,1006.27
2017-06-21T05:28:40.578Z,1006.28
2017-06-21T05:29:36.818Z,1006.27
2017-06-21T05:30:33.063Z,1006.24
2017-06-21T05:31:29.319Z,1006.29
2017-06-21T05:32:25.558Z,1006.30
2017-06-21T05:33:21.798Z,1006.30
2017-06-21T05:34:18.072Z,1006.31
2017-06-21T05:35:14.329Z,1006.31
2017-06-21T05:36:10.571Z,1006.37
2017-06-21T05:37:06.815Z,1006.38
2017-06-21T05:38:03.070Z,1006.28
2017-06-21T05:38:59.331Z,1006.41
2017-06-21T05:39:55.594Z,1006.30
2017-06-21T05:40:51.839Z,1006.35
2017-06-21T05:41:48.095Z,1006.38
2017-06-21T05:42:44.347Z,1006.42
2017-06-21T05:43:40.602Z,1006.33
2017-06-21T05:44:36.859Z,1006.31
2017-06-21T05:45:33.118Z,1006.33
2017-06-21T05:46:29.379Z,1006.48
2017-06-21T05:47:25.623Z,1006.37
2017-06-21T05:48:21.871Z,1006.39
2017-06-21T05:49:18.135Z,1006.40
2017-06-21T05:50:14.378Z,1006.36
2017-06-21T05:51:10.626Z,1006.49
2017-06-21T05:52:06.878Z,1006.50
2017-06-21T05:53:03.130Z,1006.39
2017-06-21T05:53:59.382Z,1006.46
2017-06-21T05:54:55.642Z,1006.41
2017-06-21T05:55:51.899Z,1006.40
2017-06-21T05:56:48.146Z,1006.39
2017-06-21T05:57:44.395Z,1006.33
2017-06-21T05:58:40.642Z,1006.39
2017-06-21T05:59:36.887Z,1006.40
2017-06-21T06:00:33.178Z,1006.35
2017-06-21T06:01:29.475Z,1006.37
2017-06-21T06:02:25.770Z,1006.35
2017-06-21T06:03:22.007Z,1006.43
2017-06-21T06:04:18.267Z,1006.42
2017-06-21T06:05:14.572Z,1006.41
2017-06-21T06:06:10.818Z,1006.42
2017-06-21T06:07:07.062Z,1006.37
2017-06-21T06:08:03.306Z,1006.37
2017-06-21T06:08:59.551Z,1006.32
2017-06-21T06:09:55.838Z,1006.32
2017-06-21T06:10:52.105Z,1006.33
2017-06-21T06:11:48.358Z,1006.33
2017-06-21T06:12:44.602Z,1006.24
2017-06-21T06:13:40.876Z,1006.40
2017-06-21T06:14:37.120Z,1006.41
2017-06-21T06:15:33.358Z,1006.39
2017-06-21T06:16:29.631Z,1006.35
2017-06-21T06:17:25.895Z,1006.38
2017-06-21T06:18:22.146Z,1006.34
2017-06-21T06:19:18.378Z,1006.39
2017-06-21T06:20:14.630Z,1006.37
2017-06-21T06:21:10.882Z,1006.35
2017-06-21T06:22:07.138Z,1006.32
2017-06-21T06:23:03.387Z,1006.33
2017-06-21T06:23:59.626Z,1006.33
2017-06-21T06:24:55.879Z,1006.26
2017-06-21T06:25:52.126Z,1006.37
2017-06-21T06:26:48.399Z,1006.31
2017-06-21T06:27:44.652Z,1006.33
2017-06-21T06:28:40.912Z,1006.42
2017-06-21T06:29:37.182Z,1006.33
2017-06-21T06:30:33.438Z,1006.36
2017-06-21T06:31:29.687Z,1006.34
2017-06-21T06:32:25.947Z,1006.25
2017-06-21T06:33:22.179Z,1006.39
2017-06-21T06:34:18.431Z,1006.37
2017-06-21T06:35:14.670Z,1006.30
2017-06-21T06:36:10.911Z,1006.33
2017-06-21T06:37:07.191Z,1006.28
2017-06-21T06:38:03.442Z,1006.30
2017-06-21T06:38:59.691Z,1006.36
2017-06-21T06:39:55.930Z,1006.30
2017-06-21T06:40:52.171Z,1006.34
2017-06-21T06:41:48.417Z,1006.31
2017-06-21T06:42:44.690Z,1006.43
2017-06-21T06:43:40.930Z,1006.35
2017-06-21T06:44:37.173Z,1006.30
2017-06-21T06:45:33.467Z,1006.34
2017-06-21T06:46:29.762Z,1006.36
2017-06-21T06:47:26.002Z,1006.38
2017-06-21T06:48:22.282Z,1006.36
2017-06-21T06:49:18.523Z,1006.41
2017-06-21T06:50:14.760Z,1006.34
2017-06-21T06:51:11.306Z,1006.39
2017-06-21T06:52:07.538Z,1006.33
2017-06-21T06:53:03.799Z,1006.37
2017-06-21T06:54:00.043Z,1006.39
2017-06-21T06:54:56.282Z,1006.41
2017-06-21T06:55:52.519Z,1006.40
2017-06-21T06:56:48.755Z,1006.40
2017-06-21T06:57:45.015Z,1006.46
2017-06-21T06:58:41.274Z,1006.38
2017-06-21T06:59:37.506Z,1006.40
2017-06-21T07:00:33.751Z,1006.42
2017-06-21T07:01:30.007Z,1006.45
2017-06-21T07:02:26.243Z,1006.41
2017-06-21T07:03:22.506Z,1006.36
2017-06-21T07:04:18.750Z,1006.39
2017-06-21T07:05:14.987Z,1006.39
2017-06-21T07:06:11.227Z,1006.47
2017-06-21T07:07:07.478Z,1006.47
2017-06-21T07:08:03.754Z,1006.51
2017-06-21T07:09:00.918Z,1006.39
2017-06-21T07:09:57.151Z,1006.43
2017-06-21T07:10:53.397Z,1006.46
2017-06-21T07:11:49.635Z,1006.48
2017-06-21T07:12:45.908Z,1006.49
2017-06-21T07:13:42.156Z,1006.45
2017-06-21T07:14:38.416Z,1006.44
2017-06-21T07:15:34.663Z,1006.44
2017-06-21T07:16:30.909Z,1006.48
2017-06-21T07:17:27.146Z,1006.40
2017-06-21T07:18:23.399Z,1006.47
2017-06-21T07:19:19.654Z,1006.53
2017-06-21T07:20:15.901Z,1006.48
2017-06-21T07:21:12.146Z,1006.51
2017-06-21T07:22:08.391Z,1006.41
2017-06-21T07:23:04.635Z,1006.49
2017-06-21T07:24:00.875Z,1006.37
2017-06-21T07:24:57.126Z,1006.44
2017-06-21T07:25:53.378Z,1006.41
2017-06-21T07:26:49.638Z,1006.42
2017-06-21T07:27:45.874Z,1006.53
2017-06-21T07:28:42.139Z,1006.45
2017-06-21T07:29:38.408Z,1006.55
2017-06-21T07:30:34.659Z,1006.42
2017-06-21T07:31:30.907Z,1006.46
2017-06-21T07:32:27.151Z,1006.44
2017-06-21T07:33:23.387Z,1006.45
2017-06-21T07:34:19.634Z,1006.49
2017-06-21T07:35:15.912Z,1006.47
2017-06-21T07:36:12.143Z,1006.53
2017-06-21T07:37:08.391Z,1006.45
2017-06-21T07:38:04.651Z,1006.42
2017-06-21T07:39:00.898Z,1006.45
2017-06-21T07:39:57.165Z,1006.42
2017-06-21T07:40:53.415Z,1006.48
2017-06-21T07:41:49.654Z,1006.39
2017-06-21T07:42:45.903Z,1006.51
2017-06-21T07:43:42.170Z,1006.45
2017-06-21T07:44:38.407Z,1006.47
2017-06-21T07:45:36.215Z,1006.45
2017-06-21T07:46:32.462Z,1006.45
2017-06-21T07:47:29.177Z,1006.51
2017-06-21T07:48:26.274Z,1006.47
2017-06-21T07:49:22.522Z,1006.51
2017-06-21T07:50:18.771Z,1006.43
2017-06-21T07:51:15.036Z,1006.42
2017-06-21T07:52:11.290Z,1006.47
2017-06-21T07:53:07.539Z,1006.40
2017-06-21T07:54:03.791Z,1006.49
2017-06-21T07:55:00.045Z,1006.42
2017-06-21T07:55:56.310Z,1006.52
2017-06-21T07:56:52.550Z,1006.49
2017-06-21T07:57:48.800Z,1006.47
2017-06-21T07:58:45.050Z,1006.51
2017-06-21T07:59:41.295Z,1006.52
2017-06-21T08:00:37.541Z,1006.48
2017-06-21T08:01:33.799Z,1006.45
2017-06-21T08:02:30.066Z,1006.50
2017-06-21T08:03:26.318Z,1006.52
2017-06-21T08:04:22.587Z,1006.51
2017-06-21T08:05:18.848Z,1006.46
2017-06-21T08:06:15.103Z,1006.43
2017-06-21T08:07:11.367Z,1006.49
2017-06-21T08:08:07.622Z,1006.49
2017-06-21T08:09:03.887Z,1006.46
2017-06-21T08:10:00.127Z,1006.47
2017-06-21T08:10:56.382Z,1006.53
2017-06-21T08:11:52.639Z,1006.57
2017-06-21T08:12:48.887Z,1006.47
2017-06-21T08:13:45.136Z,1006.49
2017-06-21T08:14:41.377Z,1006.53
2017-06-21T08:15:37.618Z,1006.56
2017-06-21T08:16:33.895Z,1006.60
2017-06-21T08:17:30.175Z,1006.52
2017-06-21T08:18:26.435Z,1006.51
2017-06-21T08:19:22.684Z,1006.57
2017-06-21T08:20:18.959Z,1006.47
2017-06-21T08:21:15.206Z,1006.46
2017-06-21T08:22:11.447Z,1006.43
2017-06-21T08:23:07.706Z,1006.40
2017-06-21T08:24:03.974Z,1006.50
2017-06-21T08:25:00.231Z,1006.41
2017-06-21T08:25:56.474Z,1006.41
2017-06-21T08:26:52.726Z,1006.38
2017-06-21T08:27:48.966Z,1006.44
2017-06-21T08:28:45.222Z,1006.43
2017-06-21T08:29:41.491Z,1006.41
2017-06-21T08:30:37.750Z,1006.40
2017-06-21T08:31:34.004Z,1006.42
2017-06-21T08:32:30.247Z,1006.42
2017-06-21T08:33:26.507Z,1006.44
2017-06-21T08:34:22.756Z,1006.43
2017-06-21T08:35:19.010Z,1006.42
2017-06-21T08:36:15.270Z,1006.43
2017-06-21T08:37:11.526Z,1006.41
2017-06-21T08:38:07.775Z,1006.45
2017-06-21T08:39:04.051Z,1006.38
2017-06-21T08:40:00.298Z,1006.42
2017-06-21T08:40:56.555Z,1006.43
2017-06-21T08:41:52.810Z,1006.43
2017-06-21T08:42:49.067Z,1006.46
2017-06-21T08:43:45.330Z,1006.34
2017-06-21T08:44:41.586Z,1006.46
2017-06-21T08:45:37.835Z,1006.40
2017-06-21T08:46:34.086Z,1006.35
2017-06-21T08:47:30.330Z,1006.33
2017-06-21T08:48:26.568Z,1006.38
2017-06-21T08:49:22.846Z,1006.33
2017-06-21T08:50:19.094Z,1006.44
2017-06-21T08:51:15.339Z,1006.29
2017-06-21T08:52:11.606Z,1006.34
2017-06-21T08:53:07.854Z,1006.27
2017-06-21T08:54:04.103Z,1006.32
2017-06-21T08:55:00.359Z,1006.31
2017-06-21T08:55:56.595Z,1006.31
2017-06-21T08:56:52.832Z,1006.26
2017-06-21T08:57:49.067Z,1006.33
2017-06-21T08:58:45.311Z,1006.29
2017-06-21T08:59:41.569Z,1006.25
2017-06-21T09:00:37.802Z,1006.34
2017-06-21T09:01:34.042Z,1006.32
2017-06-21T09:02:30.294Z,1006.35
2017-06-21T09:03:26.531Z,1006.29
2017-06-21T09:04:22.777Z,1006.28
2017-06-21T09:05:19.047Z,1006.24
2017-06-21T09:06:15.286Z,1006.30
2017-06-21T09:07:11.540Z,1006.31
2017-06-21T09:08:07.803Z,1006.29
2017-06-21T09:09:04.058Z,1006.30
2017-06-21T09:10:00.291Z,1006.29
2017-06-21T09:10:56.558Z,1006.28
2017-06-21T09:11:53.213Z,1006.28
2017-06-21T09:12:49.471Z,1006.20
2017-06-21T09:13:45.731Z,1006.28
2017-06-21T09:14:41.975Z,1006.26
2017-06-21T09:15:38.240Z,1006.20
2017-06-21T09:16:34.486Z,1006.21
2017-06-21T09:17:30.726Z,1006.33
2017-06-21T09:18:26.967Z,1006.24
2017-06-21T09:19:23.211Z,1006.22
2017-06-21T09:20:19.455Z,1006.27
2017-06-21T09:21:15.722Z,1006.26
2017-06-21T09:22:11.979Z,1006.26
2017-06-21T09:23:08.220Z,1006.29
2017-06-21T09:24:04.454Z,1006.24
2017-06-21T09:25:00.698Z,1006.20
2017-06-21T09:25:56.983Z,1006.18
2017-06-21T09:26:53.247Z,1006.21
2017-06-21T09:27:49.493Z,1006.24
2017-06-21T09:28:45.735Z,1006.23
2017-06-21T09:29:41.979Z,1006.23
2017-06-21T09:30:38.222Z,1006.29
2017-06-21T09:31:34.490Z,1006.26
2017-06-21T09:32:30.742Z,1006.23
2017-06-21T09:33:26.982Z,1006.27
2017-06-21T09:34:23.227Z,1006.30
2017-06-21T09:35:19.497Z,1006.28
2017-06-21T09:36:15.759Z,1006.29
2017-06-21T09:37:12.015Z,1006.29
2017-06-21T09:38:08.259Z,1006.30
2017-06-21T09:39:04.511Z,1006.29
2017-06-21T09:40:00.759Z,1006.28
2017-06-21T09:40:57.019Z,1006.31
2017-06-21T09:41:53.290Z,1006.30
2017-06-21T09:42:49.539Z,1006.25
2017-06-21T09:43:45.783Z,1006.24
2017-06-21T09:44:42.027Z,1006.28
2017-06-21T09:45:38.279Z,1006.31
2017-06-21T09:46:34.518Z,1006.28
2017-06-21T09:47:30.776Z,1006.37
2017-06-21T09:48:27.022Z,1006.38
2017-06-21T09:49:23.259Z,1006.27
2017-06-21T09:50:19.494Z,1006.38
2017-06-21T09:51:15.738Z,1006.23
2017-06-21T09:52:11.999Z,1006.23
2017-06-21T09:53:08.246Z,1006.25
2017-06-21T09:54:04.487Z,1006.34
2017-06-21T09:55:00.735Z,1006.29
2017-06-21T09:55:56.979Z,1006.36
2017-06-21T09:56:53.224Z,1006.33
2017-06-21T09:57:49.487Z,1006.33
2017-06-21T09:58:45.755Z,1006.36
2017-06-21T09:59:42.003Z,1006.29
2017-06-21T10:00:38.301Z,1006.27
2017-06-21T10:01:34.560Z,1006.29
2017-06-21T10:02:30.878Z,1006.28
2017-06-21T10:03:27.137Z,1006.23
2017-06-21T10:04:23.374Z,1006.29
2017-06-21T10:05:19.667Z,1006.22
2017-06-21T10:06:15.965Z,1006.26
2017-06-21T10:07:12.271Z,1006.22
2017-06-21T10:08:08.554Z,1006.21
2017-06-21T10:09:04.811Z,1006.28
2017-06-21T10:10:01.068Z,1006.35
2017-06-21T10:10:57.310Z,1006.21
2017-06-21T10:11:53.576Z,1006.31
2017-06-21T10:12:49.846Z,1006.32
2017-06-21T10:13:46.104Z,1006.26
2017-06-21T10:14:42.354Z,1006.23
2017-06-21T10:15:38.602Z,1006.26
2017-06-21T10:16:34.856Z,1006.29
2017-06-21T10:17:31.123Z,1006.29
2017-06-21T10:18:27.391Z,1006.27
2017-06-21T10:19:23.642Z,1006.29
2017-06-21T10:20:19.898Z,1006.26
2017-06-21T10:21:16.149Z,1006.22
2017-06-21T10:22:12.411Z,1006.23
2017-06-21T10:23:08.655Z,1006.28
2017-06-21T10:24:04.922Z,1006.17
2017-06-21T10:25:01.163Z,1006.26
2017-06-21T10:25:57.402Z,1006.28
2017-06-21T10:26:53.660Z,1006.23
2017-06-21T10:27:49.906Z,1006.26
2017-06-21T10:28:46.162Z,1006.23
2017-06-21T10:29:42.431Z,1006.16
2017-06-21T10:30:38.694Z,1006.23
2017-06-21T10:31:34.938Z,1006.18
2017-06-21T10:32:31.186Z,1006.22
2017-06-21T10:33:27.454Z,1006.19
2017-06-21T10:34:23.723Z,1006.16
2017-06-21T10:35:19.971Z,1006.21
2017-06-21T10:36:16.215Z,1006.12
2017-06-21T10:37:12.467Z,1006.12
2017-06-21T10:38:08.731Z,1006.11
2017-06-21T10:39:04.983Z,1006.15
2017-06-21T10:40:01.255Z,1006.10
2017-06-21T10:40:57.507Z,1006.12
2017-06-21T10:41:53.762Z,1006.13
2017-06-21T10:42:50.023Z,1006.13
2017-06-21T10:43:46.258Z,1006.13
2017-06-21T10:44:42.534Z,1006.00
2017-06-21T10:45:38.814Z,1006.06
2017-06-21T10:46:35.066Z,1006.07
2017-06-21T10:47:31.355Z,1006.04
2017-06-21T10:48:27.611Z,1006.08
2017-06-21T10:49:23.855Z,1006.10
2017-06-21T10:50:20.091Z,1006.16
2017-06-21T10:51:16.355Z,1006.09
2017-06-21T10:52:12.627Z,1006.07
2017-06-21T10:53:08.890Z,1006.04
2017-06-21T10:54:05.143Z,1006.04
2017-06-21T10:55:01.395Z,1006.08
2017-06-21T10:55:57.670Z,1006.06
2017-06-21T10:56:53.922Z,1006.02
2017-06-21T10:57:50.183Z,1006.00
2017-06-21T10:58:46.440Z,1006.07
2017-06-21T10:59:42.695Z,1006.03
2017-06-21T11:00:38.942Z,1006.03
2017-06-21T11:01:35.210Z,1006.03
2017-06-21T11:02:31.461Z,1006.03
2017-06-21T11:03:27.709Z,1006.06
2017-06-21T11:04:23.970Z,1006.12
2017-06-21T11:05:20.214Z,1006.09
2017-06-21T11:06:16.474Z,1006.14
2017-06-21T11:07:12.708Z,1006.01
2017-06-21T11:08:08.966Z,1006.02
2017-06-21T11:09:05.235Z,1006.03
2017-06-21T11:10:01.479Z,1006.03
2017-06-21T11:10:57.735Z,1006.03
2017-06-21T11:11:53.998Z,1006.03
2017-06-21T11:12:50.234Z,1005.92
2017-06-21T11:13:46.474Z,1005.92
2017-06-21T11:14:42.723Z,1005.92
2017-06-21T11:15:38.970Z,1005.96
2017-06-21T11:16:35.270Z,1005.90
2017-06-21T11:17:31.531Z,1005.94
2017-06-21T11:18:27.786Z,1005.92
2017-06-21T11:19:24.050Z,1005.93
2017-06-21T11:20:20.303Z,1006.00